KLM677 EHAM-CYYC
Flight info
| Callsign | KLM677 |
|---|---|
| Flight time | N/A |
| Altitude | 40000 |
| Route | BERGI M90 LONAM DCT WECOW DCT CUTEL DCT ODMIX DCT FORTY DCT SOSAR/M084F400 DCT 66N010W 70N020W 73N040W 73N060W DCT MEDPA/N0488F400 DCT 7130N08000W 6930N09000W 65N100W DCT YMM DCT IGVUX DCT DUDNI BIRKO6 |
| Aircraft | A359/H-SDE2E3GHIJ3J4J5LM1ORWXY/LB1D1 |
Departure
| Time | 2026-05-04 06:48 |
|---|---|
| Airport | Amsterdam Airport Schiphol (EHAM) |
Arrival
| Time | N/A |
|---|---|
| Airport | Calgary International Airport (CYYC) |
| Time | Latitude | Longitude | Altitude | Speed | Heading |
|---|---|---|---|---|---|
| 2026-05-04 05:58 | 52.31215 | 4.76540 | 6 ft | 0 kts | 124° |
| 2026-05-04 06:40 | 52.31231 | 4.76463 | 7 ft | 4 kts | 78° |
| 2026-05-04 06:40 | 52.31221 | 4.76429 | 7 ft | 4 kts | 26° |
| 2026-05-04 06:40 | 52.31211 | 4.76423 | 6 ft | 1 kts | 15° |
| 2026-05-04 06:44 | 52.31479 | 4.76832 | 4 ft | 16 kts | 86° |
| 2026-05-04 06:44 | 52.31485 | 4.77020 | 4 ft | 17 kts | 87° |
| 2026-05-04 06:44 | 52.31454 | 4.77203 | 4 ft | 17 kts | 122° |
| 2026-05-04 06:45 | 52.31375 | 4.77362 | 4 ft | 19 kts | 131° |
| 2026-05-04 06:45 | 52.31275 | 4.77489 | 4 ft | 18 kts | 163° |
| 2026-05-04 06:45 | 52.31147 | 4.77496 | 4 ft | 19 kts | 184° |
| 2026-05-04 06:45 | 52.31014 | 4.77484 | 4 ft | 20 kts | 183° |
| 2026-05-04 06:46 | 52.30872 | 4.77471 | 4 ft | 21 kts | 183° |
| 2026-05-04 06:46 | 52.30725 | 4.77457 | 4 ft | 20 kts | 182° |
| 2026-05-04 06:46 | 52.30600 | 4.77523 | 4 ft | 19 kts | 154° |
| 2026-05-04 06:46 | 52.30484 | 4.77616 | 5 ft | 14 kts | 155° |
| 2026-05-04 06:48 | 52.28733 | 4.73219 | 814 ft | 165 kts | 239° |
| 2026-05-04 06:48 | 52.28149 | 4.71670 | 1634 ft | 159 kts | 240° |
| 2026-05-04 06:49 | 52.27506 | 4.70093 | 1981 ft | 181 kts | 233° |
| 2026-05-04 06:50 | 52.24384 | 4.53721 | 5887 ft | 264 kts | 316° |
| 2026-05-04 06:51 | 52.25852 | 4.51958 | 6635 ft | 268 kts | 328° |
| 2026-05-04 06:51 | 52.27465 | 4.50402 | 7381 ft | 272 kts | 329° |
| 2026-05-04 06:51 | 52.29104 | 4.48826 | 8174 ft | 275 kts | 328° |
| 2026-05-04 06:51 | 52.30776 | 4.47193 | 8995 ft | 278 kts | 328° |
| 2026-05-04 06:52 | 52.32411 | 4.45565 | 9817 ft | 281 kts | 325° |
| 2026-05-04 06:52 | 52.34103 | 4.43841 | 10394 ft | 293 kts | 325° |
| 2026-05-04 06:52 | 52.35997 | 4.42289 | 10679 ft | 318 kts | 340° |
| 2026-05-04 06:52 | 52.38250 | 4.41610 | 11014 ft | 340 kts | 351° |
| 2026-05-04 06:53 | 52.40643 | 4.41247 | 11591 ft | 349 kts | 352° |
| 2026-05-04 06:53 | 52.43082 | 4.40899 | 12320 ft | 355 kts | 352° |
| 2026-05-04 06:53 | 52.45557 | 4.40531 | 13034 ft | 360 kts | 352° |
| 2026-05-04 06:53 | 52.48065 | 4.40148 | 13765 ft | 364 kts | 352° |
| 2026-05-04 06:54 | 52.50605 | 4.39752 | 14388 ft | 369 kts | 352° |
| 2026-05-04 06:54 | 52.53173 | 4.39349 | 15017 ft | 373 kts | 351° |
| 2026-05-04 06:54 | 52.55741 | 4.38943 | 15649 ft | 377 kts | 351° |
| 2026-05-04 06:54 | 52.58371 | 4.38526 | 16276 ft | 381 kts | 351° |
| 2026-05-04 06:55 | 52.61028 | 4.38104 | 16913 ft | 385 kts | 351° |
| 2026-05-04 06:55 | 52.63716 | 4.37676 | 17554 ft | 390 kts | 351° |
| 2026-05-04 06:55 | 52.66430 | 4.37244 | 18206 ft | 394 kts | 351° |
| 2026-05-04 06:55 | 52.69168 | 4.36806 | 18799 ft | 398 kts | 351° |
| 2026-05-04 06:56 | 52.71947 | 4.36362 | 19399 ft | 402 kts | 351° |
| 2026-05-04 06:57 | 52.91502 | 4.29700 | 23596 ft | 422 kts | 342° |
| 2026-05-04 06:58 | 52.94376 | 4.28602 | 24077 ft | 426 kts | 342° |
| 2026-05-04 06:58 | 52.97288 | 4.27499 | 24549 ft | 430 kts | 342° |
| 2026-05-04 06:58 | 53.00215 | 4.26396 | 25003 ft | 434 kts | 342° |
| 2026-05-04 06:58 | 53.03179 | 4.25281 | 25448 ft | 437 kts | 341° |
| 2026-05-04 06:59 | 53.06124 | 4.24171 | 25895 ft | 441 kts | 341° |
| 2026-05-04 06:59 | 53.09137 | 4.23034 | 26342 ft | 445 kts | 341° |
| 2026-05-04 06:59 | 53.12170 | 4.21888 | 26786 ft | 449 kts | 340° |
| 2026-05-04 06:59 | 53.15225 | 4.20732 | 27234 ft | 452 kts | 340° |
| 2026-05-04 07:01 | 53.37169 | 4.12371 | 30260 ft | 473 kts | 339° |
| 2026-05-04 07:01 | 53.40379 | 4.11140 | 30635 ft | 475 kts | 340° |
| 2026-05-04 07:02 | 53.43570 | 4.09914 | 30969 ft | 477 kts | 341° |
| 2026-05-04 07:02 | 53.46807 | 4.08672 | 31327 ft | 479 kts | 341° |
| 2026-05-04 07:02 | 53.50071 | 4.07419 | 31679 ft | 481 kts | 341° |
| 2026-05-04 07:02 | 53.53343 | 4.06164 | 32025 ft | 482 kts | 342° |
| 2026-05-04 07:03 | 53.56631 | 4.04901 | 32356 ft | 484 kts | 342° |
| 2026-05-04 07:03 | 53.59927 | 4.03626 | 32663 ft | 486 kts | 342° |
| 2026-05-04 07:03 | 53.63228 | 4.02345 | 32969 ft | 488 kts | 342° |
| 2026-05-04 07:03 | 53.66534 | 4.01059 | 33255 ft | 490 kts | 342° |
| 2026-05-04 07:04 | 53.69860 | 3.99763 | 33631 ft | 489 kts | 343° |
| 2026-05-04 07:04 | 53.73180 | 3.98469 | 33955 ft | 490 kts | 343° |
| 2026-05-04 07:04 | 53.76507 | 3.97171 | 34185 ft | 491 kts | 343° |
| 2026-05-04 07:04 | 53.79842 | 3.95868 | 34450 ft | 492 kts | 343° |
| 2026-05-04 07:05 | 53.83123 | 3.94512 | 34692 ft | 490 kts | 340° |
| 2026-05-04 07:05 | 53.86397 | 3.92696 | 34945 ft | 489 kts | 338° |
| 2026-05-04 07:05 | 53.89568 | 3.90819 | 35201 ft | 489 kts | 337° |
| 2026-05-04 07:05 | 53.92771 | 3.88868 | 35457 ft | 489 kts | 336° |
| 2026-05-04 07:06 | 53.99154 | 3.84904 | 36039 ft | 487 kts | 336° |
| 2026-05-04 07:06 | 54.02311 | 3.82815 | 36256 ft | 486 kts | 334° |
| 2026-05-04 07:06 | 54.05415 | 3.80529 | 36465 ft | 486 kts | 333° |
| 2026-05-04 07:07 | 54.08489 | 3.78165 | 36688 ft | 486 kts | 332° |
| 2026-05-04 07:08 | 54.30124 | 3.61750 | 37999 ft | 489 kts | 334° |
| 2026-05-04 07:09 | 54.33239 | 3.59412 | 38001 ft | 489 kts | 334° |
| 2026-05-04 07:09 | 54.39394 | 3.54778 | 38002 ft | 488 kts | 333° |
| 2026-05-04 07:10 | 54.45638 | 3.50059 | 38019 ft | 488 kts | 333° |
| 2026-05-04 07:12 | 54.70383 | 3.31192 | 38010 ft | 487 kts | 333° |
| 2026-05-04 07:12 | 54.76570 | 3.26435 | 38010 ft | 486 kts | 333° |
| 2026-05-04 07:13 | 54.82742 | 3.21675 | 38013 ft | 485 kts | 334° |
| 2026-05-04 07:13 | 54.88912 | 3.16899 | 38012 ft | 485 kts | 334° |
| 2026-05-04 07:14 | 55.04325 | 3.04898 | 38012 ft | 485 kts | 334° |
| 2026-05-04 07:15 | 55.10444 | 3.00105 | 38015 ft | 485 kts | 333° |
| 2026-05-04 07:15 | 55.16604 | 2.95264 | 38015 ft | 485 kts | 333° |
| 2026-05-04 07:16 | 55.22754 | 2.90415 | 38015 ft | 485 kts | 333° |
| 2026-05-04 07:16 | 55.28902 | 2.85551 | 38015 ft | 484 kts | 333° |
| 2026-05-04 07:17 | 55.35045 | 2.80674 | 38015 ft | 484 kts | 333° |
| 2026-05-04 07:17 | 55.41147 | 2.75813 | 38016 ft | 484 kts | 334° |
| 2026-05-04 07:18 | 55.47271 | 2.70920 | 38015 ft | 483 kts | 334° |
| 2026-05-04 07:18 | 55.53384 | 2.66015 | 38020 ft | 482 kts | 333° |
| 2026-05-04 07:19 | 55.59488 | 2.61101 | 38018 ft | 481 kts | 333° |
| 2026-05-04 07:19 | 55.65579 | 2.56181 | 38015 ft | 481 kts | 333° |
| 2026-05-04 07:20 | 55.71668 | 2.51246 | 38017 ft | 481 kts | 333° |
| 2026-05-04 07:20 | 55.77723 | 2.46323 | 38026 ft | 481 kts | 333° |
| 2026-05-04 07:22 | 56.00963 | 2.27368 | 38019 ft | 479 kts | 333° |
| 2026-05-04 07:23 | 56.07020 | 2.22424 | 38017 ft | 477 kts | 333° |
| 2026-05-04 07:23 | 56.13054 | 2.17475 | 38012 ft | 477 kts | 333° |
| 2026-05-04 07:24 | 56.19083 | 2.12511 | 38013 ft | 477 kts | 333° |
| 2026-05-04 07:24 | 56.25076 | 2.07559 | 38014 ft | 477 kts | 333° |
| 2026-05-04 07:26 | 56.49112 | 1.87527 | 38007 ft | 476 kts | 333° |
| 2026-05-04 07:27 | 56.55133 | 1.82465 | 38006 ft | 476 kts | 333° |
| 2026-05-04 07:27 | 56.61133 | 1.77403 | 38007 ft | 474 kts | 333° |
| 2026-05-04 07:28 | 56.67087 | 1.72363 | 38003 ft | 473 kts | 333° |
| 2026-05-04 07:28 | 56.73033 | 1.67312 | 38009 ft | 471 kts | 333° |
| 2026-05-04 07:29 | 56.78944 | 1.62271 | 38011 ft | 471 kts | 333° |
| 2026-05-04 07:29 | 56.84876 | 1.57195 | 38014 ft | 470 kts | 332° |
| 2026-05-04 07:30 | 56.90803 | 1.52106 | 38005 ft | 469 kts | 332° |
| 2026-05-04 07:30 | 56.96708 | 1.47018 | 38005 ft | 468 kts | 332° |
| 2026-05-04 07:31 | 57.02570 | 1.41951 | 38001 ft | 468 kts | 332° |
| 2026-05-04 07:33 | 57.26100 | 1.21421 | 37999 ft | 468 kts | 332° |
| 2026-05-04 07:33 | 57.31972 | 1.16252 | 37997 ft | 468 kts | 332° |
| 2026-05-04 07:34 | 57.37847 | 1.11063 | 38015 ft | 468 kts | 332° |
| 2026-05-04 07:34 | 57.43718 | 1.05860 | 37995 ft | 467 kts | 332° |
| 2026-05-04 07:35 | 57.49577 | 1.00647 | 37989 ft | 467 kts | 332° |
| 2026-05-04 07:35 | 57.55394 | 0.95454 | 37985 ft | 466 kts | 331° |
| 2026-05-04 07:36 | 57.61247 | 0.90210 | 37987 ft | 466 kts | 331° |
| 2026-05-04 07:38 | 57.84573 | 0.69122 | 37976 ft | 465 kts | 331° |
| 2026-05-04 07:38 | 57.90402 | 0.63805 | 37987 ft | 465 kts | 331° |
| 2026-05-04 07:39 | 57.96230 | 0.58482 | 37972 ft | 465 kts | 332° |
| 2026-05-04 07:39 | 58.02160 | 0.53738 | 37977 ft | 466 kts | 335° |
| 2026-05-04 07:40 | 58.08216 | 0.49229 | 37968 ft | 467 kts | 335° |
| 2026-05-04 07:40 | 58.14243 | 0.44648 | 37971 ft | 466 kts | 334° |
| 2026-05-04 07:41 | 58.20226 | 0.39995 | 38003 ft | 466 kts | 334° |
| 2026-05-04 07:41 | 58.26222 | 0.35285 | 37964 ft | 465 kts | 334° |
| 2026-05-04 07:42 | 58.32198 | 0.30571 | 37961 ft | 465 kts | 334° |
| 2026-05-04 07:42 | 58.38136 | 0.25873 | 37953 ft | 464 kts | 334° |
| 2026-05-04 07:43 | 58.44102 | 0.21138 | 37953 ft | 464 kts | 334° |
| 2026-05-04 07:43 | 58.50073 | 0.16384 | 37955 ft | 464 kts | 333° |
| 2026-05-04 07:44 | 58.56019 | 0.11632 | 37950 ft | 462 kts | 333° |
| 2026-05-04 07:44 | 58.61944 | 0.06878 | 37944 ft | 462 kts | 333° |
| 2026-05-04 07:45 | 58.67873 | 0.02101 | 37947 ft | 462 kts | 333° |
| 2026-05-04 07:45 | 58.73799 | -0.02689 | 37934 ft | 461 kts | 333° |
| 2026-05-04 07:46 | 58.79654 | -0.07436 | 37939 ft | 458 kts | 333° |
| 2026-05-04 07:46 | 58.85516 | -0.12211 | 37936 ft | 457 kts | 333° |
| 2026-05-04 07:47 | 58.91377 | -0.17002 | 37933 ft | 457 kts | 333° |
| 2026-05-04 07:49 | 59.14779 | -0.36307 | 37925 ft | 457 kts | 333° |
| 2026-05-04 07:49 | 59.20641 | -0.41189 | 37921 ft | 457 kts | 333° |
| 2026-05-04 07:50 | 59.26495 | -0.46081 | 37917 ft | 457 kts | 333° |
| 2026-05-04 07:50 | 59.32340 | -0.50984 | 37950 ft | 457 kts | 332° |
| 2026-05-04 07:51 | 59.38168 | -0.55893 | 37912 ft | 460 kts | 332° |
| 2026-05-04 07:51 | 59.44053 | -0.60868 | 37897 ft | 460 kts | 332° |
| 2026-05-04 07:52 | 59.49933 | -0.65855 | 37903 ft | 460 kts | 332° |
| 2026-05-04 07:52 | 59.55814 | -0.70863 | 37916 ft | 460 kts | 332° |
| 2026-05-04 07:54 | 59.79207 | -0.90976 | 38392 ft | 459 kts | 332° |
| 2026-05-04 07:55 | 59.82132 | -0.93514 | 38494 ft | 459 kts | 332° |
| 2026-05-04 07:55 | 59.85064 | -0.96062 | 38593 ft | 460 kts | 332° |
| 2026-05-04 07:55 | 59.90934 | -1.01177 | 38798 ft | 461 kts | 332° |
| 2026-05-04 07:56 | 59.96840 | -1.06345 | 38960 ft | 464 kts | 332° |
| 2026-05-04 07:56 | 60.02718 | -1.11508 | 39127 ft | 465 kts | 332° |
| 2026-05-04 07:57 | 60.08653 | -1.16739 | 39312 ft | 465 kts | 332° |
| 2026-05-04 07:57 | 60.14584 | -1.21989 | 39491 ft | 466 kts | 332° |
| 2026-05-04 07:58 | 60.17546 | -1.24618 | 39626 ft | 466 kts | 331° |
| 2026-05-04 07:58 | 60.20511 | -1.27256 | 39721 ft | 467 kts | 331° |
| 2026-05-04 07:58 | 60.26461 | -1.32564 | 39882 ft | 468 kts | 331° |
| 2026-05-04 07:59 | 60.32445 | -1.37928 | 39883 ft | 471 kts | 332° |
| 2026-05-04 07:59 | 60.38392 | -1.43275 | 39902 ft | 471 kts | 332° |
| 2026-05-04 08:00 | 60.44380 | -1.48679 | 39909 ft | 470 kts | 332° |
| 2026-05-04 08:02 | 60.68444 | -1.70634 | 39926 ft | 475 kts | 331° |
| 2026-05-04 08:02 | 60.74437 | -1.76158 | 39962 ft | 475 kts | 331° |
| 2026-05-04 08:03 | 60.80466 | -1.81737 | 39927 ft | 474 kts | 331° |
| 2026-05-04 08:03 | 60.86448 | -1.87297 | 39931 ft | 474 kts | 331° |
| 2026-05-04 08:04 | 60.92456 | -1.92905 | 39938 ft | 474 kts | 331° |
| 2026-05-04 08:04 | 60.98459 | -1.98554 | 39936 ft | 473 kts | 329° |
| 2026-05-04 08:05 | 61.04127 | -2.05307 | 39958 ft | 470 kts | 324° |
| 2026-05-04 08:05 | 61.09672 | -2.12422 | 39941 ft | 468 kts | 324° |
| 2026-05-04 08:06 | 61.15148 | -2.19571 | 39939 ft | 467 kts | 323° |
| 2026-05-04 08:06 | 61.20645 | -2.26775 | 39938 ft | 467 kts | 324° |
| 2026-05-04 08:08 | 61.42612 | -2.55774 | 39956 ft | 468 kts | 323° |
| 2026-05-04 08:11 | 61.67245 | -2.88875 | 39954 ft | 467 kts | 323° |
| 2026-05-04 08:11 | 61.75424 | -3.00006 | 39952 ft | 467 kts | 323° |
| 2026-05-04 08:12 | 61.80850 | -3.07430 | 39951 ft | 467 kts | 323° |
| 2026-05-04 08:12 | 61.86303 | -3.14924 | 39956 ft | 467 kts | 323° |
| 2026-05-04 08:13 | 61.90865 | -3.21218 | 39958 ft | 467 kts | 323° |
| 2026-05-04 08:13 | 61.96296 | -3.28741 | 39954 ft | 467 kts | 323° |
| 2026-05-04 08:14 | 62.01742 | -3.36316 | 39954 ft | 467 kts | 323° |
| 2026-05-04 08:16 | 62.23416 | -3.66795 | 39965 ft | 466 kts | 323° |
| 2026-05-04 08:16 | 62.28818 | -3.74475 | 39958 ft | 465 kts | 323° |
| 2026-05-04 08:17 | 62.34191 | -3.82149 | 39962 ft | 465 kts | 323° |
| 2026-05-04 08:17 | 62.39580 | -3.89877 | 39962 ft | 465 kts | 323° |
| 2026-05-04 08:19 | 62.61108 | -4.21095 | 39967 ft | 467 kts | 322° |
| 2026-05-04 08:20 | 62.66494 | -4.28993 | 39966 ft | 467 kts | 322° |
| 2026-05-04 08:20 | 62.71876 | -4.36919 | 39966 ft | 467 kts | 322° |
| 2026-05-04 08:21 | 62.77247 | -4.44865 | 39972 ft | 467 kts | 322° |
| 2026-05-04 08:21 | 62.82592 | -4.52809 | 39970 ft | 468 kts | 323° |
| 2026-05-04 08:22 | 62.87969 | -4.60833 | 39968 ft | 467 kts | 322° |
| 2026-05-04 08:24 | 63.09410 | -4.93202 | 39969 ft | 466 kts | 322° |
| 2026-05-04 08:24 | 63.14742 | -5.01343 | 39968 ft | 466 kts | 322° |
| 2026-05-04 08:25 | 63.20064 | -5.09508 | 39966 ft | 465 kts | 322° |
| 2026-05-04 08:25 | 63.25388 | -5.17711 | 39969 ft | 465 kts | 322° |
| 2026-05-04 08:27 | 63.46550 | -5.50693 | 39963 ft | 463 kts | 322° |
| 2026-05-04 08:28 | 63.51788 | -5.58953 | 39966 ft | 463 kts | 322° |
| 2026-05-04 08:28 | 63.57059 | -5.67302 | 39966 ft | 463 kts | 322° |
| 2026-05-04 08:29 | 63.62312 | -5.75659 | 39969 ft | 463 kts | 322° |
| 2026-05-04 08:31 | 63.83319 | -6.09475 | 39966 ft | 464 kts | 321° |
| 2026-05-04 08:33 | 64.04277 | -6.43850 | 39962 ft | 465 kts | 321° |
| 2026-05-04 08:35 | 64.25203 | -6.78830 | 39962 ft | 466 kts | 321° |
| 2026-05-04 08:35 | 64.30430 | -6.87674 | 39957 ft | 467 kts | 321° |
| 2026-05-04 08:37 | 64.48673 | -7.18871 | 39955 ft | 466 kts | 321° |
| 2026-05-04 08:38 | 64.53852 | -7.27825 | 39948 ft | 466 kts | 321° |
| 2026-05-04 08:38 | 64.59012 | -7.36789 | 39949 ft | 465 kts | 321° |
| 2026-05-04 08:40 | 64.79684 | -7.73143 | 39969 ft | 465 kts | 321° |
| 2026-05-04 08:41 | 64.84846 | -7.82333 | 39955 ft | 466 kts | 321° |
| 2026-05-04 08:41 | 64.90000 | -7.91554 | 39953 ft | 467 kts | 321° |
| 2026-05-04 08:42 | 64.95180 | -8.00867 | 39938 ft | 467 kts | 321° |
| 2026-05-04 08:42 | 65.00334 | -8.10180 | 39954 ft | 467 kts | 320° |
| 2026-05-04 08:43 | 65.05443 | -8.19458 | 39948 ft | 466 kts | 320° |
| 2026-05-04 08:43 | 65.10604 | -8.28878 | 39948 ft | 467 kts | 321° |
| 2026-05-04 08:44 | 65.15729 | -8.38279 | 39942 ft | 466 kts | 321° |
| 2026-05-04 08:46 | 65.36218 | -8.76336 | 39941 ft | 466 kts | 320° |
| 2026-05-04 08:46 | 65.41308 | -8.85912 | 39923 ft | 467 kts | 320° |
| 2026-05-04 08:47 | 65.46397 | -8.95534 | 39925 ft | 467 kts | 320° |
| 2026-05-04 08:47 | 65.51493 | -9.05218 | 39913 ft | 467 kts | 320° |
| 2026-05-04 08:48 | 65.56580 | -9.14934 | 39920 ft | 467 kts | 320° |
| 2026-05-04 08:48 | 65.61694 | -9.24754 | 39909 ft | 467 kts | 320° |
| 2026-05-04 08:49 | 65.66749 | -9.34509 | 39928 ft | 467 kts | 320° |
| 2026-05-04 08:50 | 65.84445 | -9.69061 | 39897 ft | 466 kts | 320° |
| 2026-05-04 08:51 | 65.89506 | -9.79059 | 39896 ft | 466 kts | 320° |
| 2026-05-04 08:51 | 65.94517 | -9.89008 | 39902 ft | 467 kts | 320° |
| 2026-05-04 08:52 | 65.99533 | -9.99020 | 39881 ft | 464 kts | 320° |
| 2026-05-04 08:52 | 66.04578 | -10.09036 | 39902 ft | 465 kts | 320° |
| 2026-05-04 08:54 | 66.24745 | -10.49082 | 39871 ft | 466 kts | 320° |
| 2026-05-04 08:55 | 66.29746 | -10.59164 | 39860 ft | 463 kts | 320° |
| 2026-05-04 08:55 | 66.34758 | -10.69327 | 39877 ft | 465 kts | 320° |
| 2026-05-04 09:01 | 66.87162 | -11.78904 | 39859 ft | 468 kts | 319° |
| 2026-05-04 09:01 | 66.91292 | -11.87810 | 39859 ft | 468 kts | 319° |
| 2026-05-04 09:02 | 66.96252 | -11.98558 | 39872 ft | 469 kts | 319° |
| 2026-05-04 09:02 | 67.01207 | -12.09356 | 39873 ft | 467 kts | 319° |
| 2026-05-04 09:03 | 67.06151 | -12.20191 | 39872 ft | 467 kts | 319° |
| 2026-05-04 09:03 | 67.11072 | -12.31039 | 39873 ft | 469 kts | 319° |
| 2026-05-04 09:04 | 67.16019 | -12.41999 | 39872 ft | 469 kts | 319° |
| 2026-05-04 09:04 | 67.20954 | -12.52998 | 39895 ft | 469 kts | 319° |
| 2026-05-04 09:05 | 67.25891 | -12.64061 | 39890 ft | 470 kts | 318° |
| 2026-05-04 09:05 | 67.30822 | -12.75173 | 39893 ft | 469 kts | 318° |
| 2026-05-04 09:06 | 67.35741 | -12.86321 | 39893 ft | 469 kts | 318° |
| 2026-05-04 09:08 | 67.55294 | -13.31279 | 39903 ft | 469 kts | 317° |
| 2026-05-04 09:08 | 67.60183 | -13.42682 | 39919 ft | 468 kts | 317° |
| 2026-05-04 09:09 | 67.65046 | -13.54090 | 39930 ft | 468 kts | 317° |
| 2026-05-04 09:09 | 67.69881 | -13.65500 | 39928 ft | 470 kts | 317° |
| 2026-05-04 09:10 | 67.74739 | -13.77028 | 39926 ft | 469 kts | 317° |
| 2026-05-04 09:10 | 67.79584 | -13.88591 | 39927 ft | 469 kts | 317° |
| 2026-05-04 09:11 | 67.84430 | -14.00228 | 39930 ft | 470 kts | 317° |
| 2026-05-04 09:11 | 67.89237 | -14.11837 | 39946 ft | 469 kts | 317° |
| 2026-05-04 09:12 | 67.94053 | -14.23536 | 39953 ft | 469 kts | 317° |
| 2026-05-04 09:14 | 68.13171 | -14.70670 | 39974 ft | 468 kts | 316° |
| 2026-05-04 09:14 | 68.17941 | -14.82601 | 39973 ft | 468 kts | 316° |
| 2026-05-04 09:15 | 68.22676 | -14.94520 | 39982 ft | 465 kts | 316° |
| 2026-05-04 09:15 | 68.27418 | -15.06525 | 39981 ft | 468 kts | 316° |
| 2026-05-04 09:17 | 68.48629 | -15.61124 | 40017 ft | 467 kts | 316° |
| 2026-05-04 09:18 | 68.53283 | -15.73304 | 40017 ft | 464 kts | 316° |
| 2026-05-04 09:18 | 68.57943 | -15.85576 | 40034 ft | 467 kts | 316° |
| 2026-05-04 09:19 | 68.62626 | -15.97977 | 40031 ft | 466 kts | 315° |
| 2026-05-04 09:19 | 68.67238 | -16.10266 | 40033 ft | 463 kts | 315° |
| 2026-05-04 09:20 | 68.71850 | -16.22634 | 40034 ft | 464 kts | 315° |
| 2026-05-04 09:20 | 68.76487 | -16.35143 | 40060 ft | 467 kts | 315° |
| 2026-05-04 09:21 | 68.81116 | -16.47706 | 40063 ft | 463 kts | 315° |
| 2026-05-04 09:21 | 68.85701 | -16.60230 | 40072 ft | 464 kts | 315° |
| 2026-05-04 09:22 | 68.90279 | -16.72813 | 40077 ft | 468 kts | 315° |
| 2026-05-04 09:22 | 68.94891 | -16.85563 | 40075 ft | 466 kts | 315° |
| 2026-05-04 09:23 | 68.99458 | -16.98271 | 40104 ft | 462 kts | 315° |
| 2026-05-04 09:23 | 69.04021 | -17.11050 | 40106 ft | 467 kts | 315° |
| 2026-05-04 09:25 | 69.22183 | -17.62706 | 40129 ft | 466 kts | 314° |
| 2026-05-04 09:26 | 69.26706 | -17.75773 | 40127 ft | 463 kts | 314° |
| 2026-05-04 09:26 | 69.31148 | -17.88688 | 40151 ft | 461 kts | 314° |
| 2026-05-04 09:27 | 69.35620 | -18.01776 | 40139 ft | 465 kts | 314° |
| 2026-05-04 09:27 | 69.40125 | -18.15041 | 40147 ft | 465 kts | 314° |
| 2026-05-04 09:28 | 69.44581 | -18.28248 | 40163 ft | 459 kts | 314° |
| 2026-05-04 09:28 | 69.49003 | -18.41440 | 40166 ft | 462 kts | 314° |
| 2026-05-04 09:29 | 69.53458 | -18.54813 | 40183 ft | 466 kts | 313° |
| 2026-05-04 09:29 | 69.57885 | -18.68188 | 40181 ft | 465 kts | 313° |
| 2026-05-04 09:30 | 69.62312 | -18.81648 | 40190 ft | 462 kts | 313° |
| 2026-05-04 09:30 | 69.66730 | -18.95171 | 40207 ft | 466 kts | 313° |
| 2026-05-04 09:31 | 69.71177 | -19.08871 | 40197 ft | 468 kts | 313° |
| 2026-05-04 09:31 | 69.75587 | -19.22549 | 40209 ft | 462 kts | 313° |
| 2026-05-04 09:32 | 69.79945 | -19.36155 | 40217 ft | 462 kts | 313° |
| 2026-05-04 09:34 | 69.97419 | -19.91606 | 40248 ft | 465 kts | 312° |
| 2026-05-04 09:34 | 70.01486 | -20.06406 | 40251 ft | 469 kts | 306° |
| 2026-05-04 09:35 | 70.05207 | -20.22005 | 40283 ft | 467 kts | 305° |
| 2026-05-04 09:35 | 70.08864 | -20.37766 | 40292 ft | 469 kts | 305° |
| 2026-05-04 09:37 | 70.23376 | -21.01446 | 40298 ft | 472 kts | 304° |
| 2026-05-04 09:38 | 70.26975 | -21.17512 | 40299 ft | 470 kts | 304° |
| 2026-05-04 09:38 | 70.30595 | -21.33793 | 40309 ft | 475 kts | 303° |
| 2026-05-04 09:39 | 70.34222 | -21.50237 | 40321 ft | 476 kts | 303° |
| 2026-05-04 09:39 | 70.37832 | -21.66728 | 40318 ft | 474 kts | 303° |
| 2026-05-04 09:40 | 70.41412 | -21.83208 | 40328 ft | 474 kts | 303° |
| 2026-05-04 09:40 | 70.44968 | -21.99702 | 40326 ft | 475 kts | 303° |
| 2026-05-04 09:42 | 70.59055 | -22.66322 | 40362 ft | 478 kts | 302° |
| 2026-05-04 09:43 | 70.62579 | -22.83320 | 40360 ft | 479 kts | 302° |
| 2026-05-04 09:43 | 70.66086 | -23.00371 | 40346 ft | 478 kts | 302° |
| 2026-05-04 09:44 | 70.69555 | -23.17370 | 40360 ft | 478 kts | 302° |
| 2026-05-04 09:46 | 70.83373 | -23.86478 | 40386 ft | 480 kts | 301° |
| 2026-05-04 09:46 | 70.86775 | -24.03842 | 40387 ft | 480 kts | 301° |
| 2026-05-04 09:47 | 70.90182 | -24.21378 | 40387 ft | 480 kts | 301° |
| 2026-05-04 09:49 | 71.03618 | -24.91987 | 40387 ft | 481 kts | 300° |
| 2026-05-04 09:51 | 71.14637 | -25.51727 | 40402 ft | 481 kts | 300° |
| 2026-05-04 09:51 | 71.17901 | -25.69757 | 40403 ft | 480 kts | 300° |
| 2026-05-04 09:52 | 71.21155 | -25.87881 | 40417 ft | 481 kts | 299° |
| 2026-05-04 09:52 | 71.24370 | -26.05955 | 40403 ft | 481 kts | 299° |
| 2026-05-04 09:53 | 71.27593 | -26.24228 | 40430 ft | 481 kts | 299° |
| 2026-05-04 09:53 | 71.30793 | -26.42531 | 40441 ft | 481 kts | 299° |
| 2026-05-04 09:54 | 71.33986 | -26.60958 | 40444 ft | 482 kts | 298° |
| 2026-05-04 09:54 | 71.37154 | -26.79405 | 40450 ft | 481 kts | 298° |
| 2026-05-04 09:55 | 71.40281 | -26.97779 | 40470 ft | 481 kts | 298° |
| 2026-05-04 09:55 | 71.43414 | -27.16350 | 40458 ft | 482 kts | 298° |
| 2026-05-04 09:56 | 71.46537 | -27.35031 | 40460 ft | 482 kts | 298° |
| 2026-05-04 09:56 | 71.49636 | -27.53746 | 40464 ft | 482 kts | 297° |
| 2026-05-04 09:57 | 71.52715 | -27.72506 | 40482 ft | 482 kts | 297° |
| 2026-05-04 09:57 | 71.55781 | -27.91364 | 40467 ft | 482 kts | 297° |
| 2026-05-04 09:58 | 71.58827 | -28.10271 | 40482 ft | 482 kts | 297° |
| 2026-05-04 09:58 | 71.61836 | -28.29122 | 40487 ft | 483 kts | 297° |
| 2026-05-04 10:00 | 71.73760 | -29.05619 | 40512 ft | 483 kts | 296° |
| 2026-05-04 10:04 | 71.93853 | -30.41601 | 40482 ft | 482 kts | 295° |
| 2026-05-04 10:04 | 71.96614 | -30.61014 | 40463 ft | 476 kts | 295° |
| 2026-05-04 10:05 | 71.99351 | -30.80499 | 40463 ft | 477 kts | 295° |
| 2026-05-04 10:05 | 72.02076 | -31.00085 | 40450 ft | 477 kts | 295° |
| 2026-05-04 10:06 | 72.04784 | -31.19763 | 40442 ft | 480 kts | 294° |
| 2026-05-04 10:06 | 72.07486 | -31.39570 | 40438 ft | 484 kts | 294° |
| 2026-05-04 10:08 | 72.16816 | -32.09602 | 40428 ft | 483 kts | 293° |
| 2026-05-04 10:08 | 72.19451 | -32.29862 | 40428 ft | 484 kts | 293° |
| 2026-05-04 10:09 | 72.22044 | -32.50017 | 40432 ft | 481 kts | 293° |
| 2026-05-04 10:09 | 72.24618 | -32.70247 | 40431 ft | 478 kts | 293° |
| 2026-05-04 10:10 | 72.27138 | -32.90277 | 40427 ft | 480 kts | 292° |
| 2026-05-04 10:10 | 72.29683 | -33.10711 | 40425 ft | 483 kts | 292° |
| 2026-05-04 10:11 | 72.32191 | -33.31065 | 40436 ft | 481 kts | 292° |
| 2026-05-04 10:11 | 72.34669 | -33.51411 | 40433 ft | 479 kts | 292° |
| 2026-05-04 10:12 | 72.37136 | -33.71900 | 40429 ft | 478 kts | 292° |
| 2026-05-04 10:12 | 72.39555 | -33.92215 | 40436 ft | 479 kts | 291° |
| 2026-05-04 10:13 | 72.41985 | -34.12855 | 40431 ft | 481 kts | 291° |
| 2026-05-04 10:13 | 72.44399 | -34.33590 | 40432 ft | 482 kts | 291° |
| 2026-05-04 10:14 | 72.46771 | -34.54209 | 40432 ft | 480 kts | 291° |
| 2026-05-04 10:16 | 72.56113 | -35.37850 | 40420 ft | 480 kts | 290° |
| 2026-05-04 10:16 | 72.58399 | -35.58952 | 40424 ft | 483 kts | 290° |
| 2026-05-04 10:17 | 72.60650 | -35.79973 | 40417 ft | 481 kts | 290° |
| 2026-05-04 10:19 | 72.69438 | -36.64675 | 40404 ft | 482 kts | 289° |
| 2026-05-04 10:19 | 72.71584 | -36.86017 | 40409 ft | 485 kts | 289° |
| 2026-05-04 10:20 | 72.73721 | -37.07558 | 40400 ft | 483 kts | 289° |
| 2026-05-04 10:20 | 72.75817 | -37.28966 | 40405 ft | 481 kts | 289° |
| 2026-05-04 10:21 | 72.77880 | -37.50323 | 40401 ft | 480 kts | 289° |
| 2026-05-04 10:21 | 72.79928 | -37.71801 | 40404 ft | 480 kts | 288° |
| 2026-05-04 10:22 | 72.82958 | -38.04128 | 40397 ft | 482 kts | 288° |
| 2026-05-04 10:23 | 72.84947 | -38.25700 | 40417 ft | 482 kts | 288° |